createdAt,value
2023-12-23T00:01:47.593Z,8.91
2023-12-23T00:04:14.371Z,8.84
2023-12-23T00:06:41.061Z,8.85
2023-12-23T00:09:07.758Z,8.87
2023-12-23T00:11:34.470Z,8.87
2023-12-23T00:14:01.495Z,8.86
2023-12-23T00:16:29.314Z,8.85
2023-12-23T00:18:56.326Z,8.85
2023-12-23T00:21:23.114Z,8.86
2023-12-23T00:23:49.889Z,8.81
2023-12-23T00:26:16.651Z,8.82
2023-12-23T00:28:44.917Z,8.81
2023-12-23T00:31:12.061Z,8.83
2023-12-23T00:33:38.839Z,8.83
2023-12-23T00:36:07.238Z,8.78
2023-12-23T00:38:35.135Z,8.79
2023-12-23T00:41:01.944Z,8.80
2023-12-23T00:43:28.721Z,8.80
2023-12-23T00:45:56.339Z,8.77
2023-12-23T00:48:23.644Z,8.75
2023-12-23T00:50:50.515Z,8.74
2023-12-23T00:53:17.356Z,8.74
2023-12-23T00:55:44.165Z,8.75
2023-12-23T00:58:10.969Z,8.72
2023-12-23T01:00:39.835Z,8.74
2023-12-23T01:03:06.537Z,8.64
2023-12-23T01:05:33.324Z,8.68
2023-12-23T01:08:00.357Z,8.70
2023-12-23T01:10:28.114Z,8.70
2023-12-23T01:12:55.134Z,8.67
2023-12-23T01:15:21.956Z,8.68
2023-12-23T01:17:49.255Z,8.68
2023-12-23T01:20:16.249Z,8.68
2023-12-23T01:22:43.052Z,8.67
2023-12-23T01:25:28.451Z,8.66
2023-12-23T01:27:55.303Z,8.63
2023-12-23T01:30:24.106Z,8.63
2023-12-23T01:32:51.043Z,8.60
2023-12-23T01:35:17.897Z,8.63
2023-12-23T01:37:44.782Z,8.61
2023-12-23T01:40:11.804Z,8.57
2023-12-23T01:42:38.858Z,8.60
2023-12-23T01:45:06.065Z,8.60
2023-12-23T01:47:35.492Z,8.59
2023-12-23T01:50:04.784Z,8.60
2023-12-23T01:52:33.565Z,8.62
2023-12-23T01:55:00.386Z,8.61
2023-12-23T01:57:27.067Z,8.62
2023-12-23T01:59:53.913Z,8.58
2023-12-23T02:02:21.960Z,8.55
2023-12-23T02:04:48.761Z,8.56
2023-12-23T02:07:15.869Z,8.58
2023-12-23T02:09:44.942Z,8.57
2023-12-23T02:12:25.826Z,8.59
2023-12-23T02:15:10.110Z,8.58
2023-12-23T02:17:39.015Z,8.58
2023-12-23T02:20:06.224Z,8.58
2023-12-23T02:22:33.126Z,8.55
2023-12-23T02:25:00.036Z,8.55
2023-12-23T02:27:51.226Z,8.52
2023-12-23T02:30:18.319Z,8.52
2023-12-23T02:32:45.853Z,8.52
2023-12-23T02:35:13.686Z,8.53
2023-12-23T02:37:42.123Z,8.49
2023-12-23T02:40:09.549Z,8.51
2023-12-23T02:42:36.246Z,8.49
2023-12-23T02:45:04.529Z,8.48
2023-12-23T02:47:31.166Z,8.46
2023-12-23T02:49:57.911Z,8.48
2023-12-23T02:52:24.639Z,8.48
2023-12-23T02:54:51.417Z,8.50
2023-12-23T02:57:18.070Z,8.48
2023-12-23T03:00:04.014Z,8.48
2023-12-23T03:02:30.897Z,8.41
2023-12-23T03:04:58.786Z,8.42
2023-12-23T03:07:25.963Z,8.44
2023-12-23T03:09:52.596Z,8.45
2023-12-23T03:12:20.447Z,8.43
2023-12-23T03:14:47.262Z,8.43
2023-12-23T03:17:14.171Z,8.34
2023-12-23T03:19:44.414Z,8.35
2023-12-23T03:22:11.243Z,8.35
2023-12-23T03:24:37.983Z,8.37
2023-12-23T03:27:05.057Z,8.38
2023-12-23T03:29:31.755Z,8.34
2023-12-23T03:31:58.583Z,8.35
2023-12-23T03:34:25.379Z,8.34
2023-12-23T03:36:52.731Z,8.35
2023-12-23T03:39:19.395Z,8.37
2023-12-23T03:41:46.158Z,8.38
2023-12-23T03:44:13.118Z,8.37
2023-12-23T03:46:40.500Z,8.37
2023-12-23T03:49:07.274Z,8.38
2023-12-23T03:51:34.058Z,8.38
2023-12-23T03:54:01.006Z,8.38
2023-12-23T03:56:27.739Z,8.36
2023-12-23T03:58:54.961Z,8.37
2023-12-23T04:01:22.126Z,8.35
2023-12-23T04:03:49.239Z,8.37
2023-12-23T04:06:16.245Z,8.38
2023-12-23T04:08:43.326Z,8.35
2023-12-23T04:11:10.230Z,8.36
2023-12-23T04:13:38.442Z,8.37
2023-12-23T04:16:05.908Z,8.37
2023-12-23T04:18:32.942Z,8.38
2023-12-23T04:20:59.808Z,8.36
2023-12-23T04:23:27.018Z,8.32
2023-12-23T04:25:53.945Z,8.34
2023-12-23T04:28:26.109Z,8.32
2023-12-23T04:30:58.104Z,8.35
2023-12-23T04:33:25.608Z,8.36
2023-12-23T04:35:54.719Z,8.32
2023-12-23T04:38:21.607Z,8.33
2023-12-23T04:40:49.002Z,8.31
2023-12-23T04:43:15.880Z,8.29
2023-12-23T04:45:42.642Z,8.27
2023-12-23T04:48:09.616Z,8.24
2023-12-23T04:50:36.446Z,8.27
2023-12-23T04:53:04.219Z,8.28
2023-12-23T04:55:31.032Z,8.28
2023-12-23T04:57:57.811Z,8.29
2023-12-23T05:00:24.903Z,8.30
2023-12-23T05:02:52.004Z,8.30
2023-12-23T05:05:19.100Z,8.31
2023-12-23T05:07:46.355Z,8.27
2023-12-23T05:10:13.951Z,8.27
2023-12-23T05:12:40.886Z,8.30
2023-12-23T05:15:08.139Z,8.30
2023-12-23T05:17:35.102Z,8.32
2023-12-23T05:20:02.873Z,8.34
2023-12-23T05:22:29.865Z,8.29
2023-12-23T05:24:56.982Z,8.31
2023-12-23T05:27:24.489Z,8.34
2023-12-23T05:29:51.416Z,8.36
2023-12-23T05:32:18.345Z,8.39
2023-12-23T05:34:45.084Z,8.40
2023-12-23T05:37:11.964Z,8.40
2023-12-23T05:39:39.584Z,8.42
2023-12-23T05:42:06.371Z,8.42
2023-12-23T05:44:33.314Z,8.39
2023-12-23T05:47:00.987Z,8.42
2023-12-23T05:49:27.638Z,8.44
2023-12-23T05:51:54.625Z,8.45
2023-12-23T05:54:21.373Z,8.43
2023-12-23T05:56:48.142Z,8.45
2023-12-23T05:59:14.954Z,8.46
2023-12-23T06:01:41.766Z,8.46
2023-12-23T06:04:08.454Z,8.48
2023-12-23T06:06:35.697Z,8.48
2023-12-23T06:09:02.397Z,8.52
2023-12-23T06:11:30.128Z,8.49
2023-12-23T06:13:57.283Z,8.51
2023-12-23T06:16:24.170Z,8.54
2023-12-23T06:18:51.144Z,8.55
2023-12-23T06:21:18.366Z,8.56
2023-12-23T06:23:45.152Z,8.57
2023-12-23T06:26:12.456Z,8.54
2023-12-23T06:28:39.266Z,8.56
2023-12-23T06:31:06.069Z,8.57
2023-12-23T06:33:32.765Z,8.57
2023-12-23T06:35:59.600Z,8.56
2023-12-23T06:38:26.355Z,8.56
2023-12-23T06:40:53.102Z,8.55
2023-12-23T06:43:44.626Z,8.51
2023-12-23T06:46:06.662Z,8.53
2023-12-23T06:48:34.738Z,8.56
2023-12-23T06:51:02.097Z,8.58
2023-12-23T06:53:28.836Z,8.58
2023-12-23T06:55:55.680Z,8.57
2023-12-23T06:58:27.827Z,8.60
2023-12-23T07:00:54.609Z,8.61
2023-12-23T07:03:22.133Z,8.60
2023-12-23T07:05:49.059Z,8.61
2023-12-23T07:08:16.734Z,8.60
2023-12-23T07:10:43.970Z,8.61
2023-12-23T07:13:10.731Z,8.57
2023-12-23T07:15:37.548Z,8.43
2023-12-23T07:18:04.584Z,7.42
2023-12-23T07:20:31.527Z,6.79
2023-12-23T07:22:58.417Z,6.40
2023-12-23T07:25:25.406Z,6.01
2023-12-23T07:27:52.199Z,5.85
2023-12-23T07:30:21.814Z,5.74
2023-12-23T07:32:48.973Z,5.62
2023-12-23T07:35:17.202Z,5.60
2023-12-23T07:37:45.587Z,5.54
2023-12-23T07:40:13.496Z,5.50
2023-12-23T07:42:40.390Z,5.47
2023-12-23T07:45:08.091Z,5.41
2023-12-23T07:47:35.602Z,5.40
2023-12-23T07:50:02.663Z,5.32
2023-12-23T07:52:29.451Z,5.23
2023-12-23T07:54:57.418Z,5.23
2023-12-23T07:57:24.155Z,5.19
2023-12-23T07:59:50.909Z,5.15
2023-12-23T08:02:17.780Z,5.16
2023-12-23T08:04:44.555Z,5.17
2023-12-23T08:07:11.414Z,5.10
2023-12-23T08:09:38.186Z,5.13
2023-12-23T08:12:05.332Z,5.16
2023-12-23T08:14:32.181Z,5.13
2023-12-23T08:16:59.079Z,5.17
2023-12-23T08:19:26.169Z,5.17
2023-12-23T08:21:53.242Z,5.23
2023-12-23T08:24:19.976Z,5.25
2023-12-23T08:26:46.897Z,5.31
2023-12-23T08:29:13.630Z,5.30
2023-12-23T08:31:46.961Z,5.34
2023-12-23T08:34:14.294Z,5.41
2023-12-23T08:36:41.038Z,5.39
2023-12-23T08:39:08.156Z,5.43
2023-12-23T08:41:37.888Z,5.39
2023-12-23T08:44:04.948Z,5.43
2023-12-23T08:46:31.782Z,5.40
2023-12-23T08:49:00.675Z,5.41
2023-12-23T08:51:30.833Z,5.45
2023-12-23T08:53:57.608Z,5.52
2023-12-23T08:56:24.567Z,5.57
2023-12-23T08:58:51.421Z,5.59
2023-12-23T09:01:18.517Z,5.55
2023-12-23T09:03:45.520Z,5.62
2023-12-23T09:06:13.832Z,5.69
2023-12-23T09:08:40.880Z,5.63
2023-12-23T09:11:08.538Z,5.63
2023-12-23T09:13:35.362Z,5.62
2023-12-23T09:16:04.211Z,5.70
2023-12-23T09:18:31.070Z,5.79
2023-12-23T09:20:57.762Z,5.78
2023-12-23T09:23:24.488Z,5.81
2023-12-23T09:25:53.033Z,5.76
2023-12-23T09:28:19.816Z,5.89
2023-12-23T09:30:46.535Z,5.95
2023-12-23T09:33:13.625Z,5.99
2023-12-23T09:35:40.390Z,6.04
2023-12-23T09:38:07.274Z,5.94
2023-12-23T09:40:34.151Z,5.98
2023-12-23T09:43:01.015Z,6.03
2023-12-23T09:45:28.041Z,6.02
2023-12-23T09:47:55.301Z,5.95
2023-12-23T09:50:23.501Z,5.86
2023-12-23T09:52:53.890Z,5.93
2023-12-23T09:55:20.949Z,5.84
2023-12-23T09:57:48.399Z,5.81
2023-12-23T10:00:15.761Z,5.85
2023-12-23T10:02:42.445Z,5.84
2023-12-23T10:05:09.623Z,5.83
2023-12-23T10:07:36.471Z,5.82
2023-12-23T10:10:03.395Z,5.83
2023-12-23T10:12:30.077Z,5.90
2023-12-23T10:14:56.837Z,5.85
2023-12-23T10:17:23.673Z,5.91
2023-12-23T10:19:51.123Z,5.88
2023-12-23T10:22:18.018Z,5.92
2023-12-23T10:24:44.795Z,5.88
2023-12-23T10:27:12.323Z,5.85
2023-12-23T10:29:40.989Z,5.91
2023-12-23T10:32:09.799Z,5.99
2023-12-23T10:34:59.924Z,5.93
2023-12-23T10:37:27.403Z,5.89
2023-12-23T10:40:03.696Z,5.82
2023-12-23T10:42:31.733Z,5.93
2023-12-23T10:44:59.448Z,5.97
2023-12-23T10:47:28.267Z,5.82
2023-12-23T10:49:57.837Z,5.85
2023-12-23T10:52:24.761Z,5.81
2023-12-23T10:54:52.742Z,5.82
2023-12-23T10:57:22.945Z,5.64
2023-12-23T10:59:50.162Z,5.61
2023-12-23T11:02:20.626Z,5.65
2023-12-23T11:04:49.746Z,5.65
2023-12-23T11:07:18.360Z,5.65
2023-12-23T11:09:46.950Z,5.65
2023-12-23T11:12:13.727Z,5.69
2023-12-23T11:14:41.036Z,5.62
2023-12-23T11:17:26.876Z,5.64
2023-12-23T11:19:57.750Z,5.64
2023-12-23T11:22:26.481Z,5.63
2023-12-23T11:24:53.329Z,5.69
2023-12-23T11:27:37.557Z,5.60
2023-12-23T11:30:11.778Z,5.64
2023-12-23T11:32:41.579Z,5.68
2023-12-23T11:35:15.597Z,5.67
2023-12-23T11:37:57.174Z,5.70
2023-12-23T11:40:24.125Z,5.82
2023-12-23T11:42:51.296Z,5.85
2023-12-23T11:45:18.517Z,5.93
2023-12-23T11:47:45.438Z,5.90
2023-12-23T11:50:13.523Z,5.90
2023-12-23T11:52:41.839Z,5.87
2023-12-23T11:55:09.089Z,5.91
2023-12-23T11:57:36.797Z,5.87
2023-12-23T12:00:05.715Z,5.96
2023-12-23T12:02:33.686Z,6.04
2023-12-23T12:05:00.672Z,5.94
2023-12-23T12:07:27.758Z,6.00
2023-12-23T12:09:55.192Z,6.04
2023-12-23T12:12:22.243Z,6.00
2023-12-23T12:14:49.390Z,6.02
2023-12-23T12:17:16.186Z,5.97
2023-12-23T12:19:43.062Z,6.01
2023-12-23T12:22:10.422Z,5.92
2023-12-23T12:24:38.856Z,6.12
2023-12-23T12:27:05.734Z,6.23
2023-12-23T12:29:33.075Z,6.29
2023-12-23T12:32:00.394Z,6.45
2023-12-23T12:34:29.742Z,6.37
2023-12-23T12:36:58.497Z,6.51
2023-12-23T12:39:27.193Z,6.39
2023-12-23T12:41:54.397Z,6.42
2023-12-23T12:44:22.036Z,6.38
2023-12-23T12:46:58.149Z,6.40
2023-12-23T12:49:25.426Z,6.46
2023-12-23T12:51:53.227Z,6.41
2023-12-23T12:54:22.500Z,6.35
2023-12-23T12:56:49.400Z,6.40
2023-12-23T12:59:16.306Z,6.44
2023-12-23T13:01:43.536Z,6.37
2023-12-23T13:04:10.536Z,6.33
2023-12-23T13:06:37.433Z,6.38
2023-12-23T13:09:05.602Z,6.33
2023-12-23T13:11:34.201Z,6.37
2023-12-23T13:14:01.714Z,6.37
2023-12-23T13:16:29.328Z,6.40
2023-12-23T13:19:00.383Z,6.27
2023-12-23T13:21:28.967Z,6.20
2023-12-23T13:23:55.947Z,6.17
2023-12-23T13:26:22.871Z,6.18
2023-12-23T13:28:52.273Z,6.21
2023-12-23T13:31:20.919Z,6.21
2023-12-23T13:33:47.734Z,6.28
2023-12-23T13:36:14.542Z,6.35
2023-12-23T13:38:44.727Z,6.33
2023-12-23T13:41:14.515Z,6.38
2023-12-23T13:43:41.382Z,6.35
2023-12-23T13:46:08.500Z,6.37
2023-12-23T13:48:35.863Z,6.34
2023-12-23T13:51:03.832Z,6.28
2023-12-23T13:53:30.767Z,6.35
2023-12-23T13:55:57.506Z,6.38
2023-12-23T13:58:24.397Z,6.33
2023-12-23T14:00:54.277Z,6.37
2023-12-23T14:03:21.272Z,6.44
2023-12-23T14:05:48.137Z,6.39
2023-12-23T14:08:15.065Z,6.35
2023-12-23T14:10:46.311Z,6.29
2023-12-23T14:13:14.311Z,6.23
2023-12-23T14:15:41.040Z,6.26
2023-12-23T14:18:08.721Z,6.26
2023-12-23T14:20:35.599Z,6.31
2023-12-23T14:23:02.608Z,6.26
2023-12-23T14:25:29.385Z,6.18
2023-12-23T14:27:56.126Z,6.19
2023-12-23T14:30:22.915Z,6.17
2023-12-23T14:32:49.976Z,6.17
2023-12-23T14:35:16.909Z,6.17
2023-12-23T14:37:48.766Z,6.13
2023-12-23T14:40:19.476Z,6.07
2023-12-23T14:42:46.325Z,6.07
2023-12-23T14:45:13.333Z,6.09
2023-12-23T14:47:40.649Z,6.07
2023-12-23T14:50:08.085Z,5.99
2023-12-23T14:52:35.006Z,5.99
2023-12-23T14:55:01.764Z,5.98
2023-12-23T14:57:28.688Z,5.94
2023-12-23T14:59:55.415Z,5.98
2023-12-23T15:02:23.110Z,5.90
2023-12-23T15:04:49.971Z,5.91
2023-12-23T15:07:16.948Z,5.85
2023-12-23T15:09:43.740Z,5.82
2023-12-23T15:12:18.553Z,5.81
2023-12-23T15:14:46.599Z,5.74
2023-12-23T15:17:13.567Z,5.72
2023-12-23T15:19:40.413Z,5.74
2023-12-23T15:22:07.193Z,5.70
2023-12-23T15:24:40.236Z,5.70
2023-12-23T15:27:07.280Z,5.69
2023-12-23T15:29:34.055Z,5.64
2023-12-23T15:32:00.985Z,5.65
2023-12-23T15:34:27.756Z,5.67
2023-12-23T15:36:57.102Z,5.64
2023-12-23T15:39:24.629Z,5.63
2023-12-23T15:41:51.643Z,5.65
2023-12-23T15:44:18.460Z,5.63
2023-12-23T15:46:45.208Z,5.67
2023-12-23T15:49:12.689Z,5.65
2023-12-23T15:51:39.542Z,5.62
2023-12-23T15:54:24.983Z,5.63
2023-12-23T15:56:53.880Z,5.63
2023-12-23T15:59:20.623Z,5.61
2023-12-23T16:01:47.751Z,5.63
2023-12-23T16:04:14.806Z,5.61
2023-12-23T16:06:41.492Z,5.62
2023-12-23T16:09:08.372Z,5.61
2023-12-23T16:11:37.964Z,5.64
2023-12-23T16:14:05.507Z,5.63
2023-12-23T16:16:32.505Z,5.62
2023-12-23T16:18:59.370Z,5.67
2023-12-23T16:21:26.126Z,5.62
2023-12-23T16:23:52.880Z,5.58
2023-12-23T16:26:19.874Z,5.59
2023-12-23T16:28:47.150Z,5.57
2023-12-23T16:31:14.870Z,5.55
2023-12-23T16:33:42.354Z,5.54
2023-12-23T16:36:13.214Z,5.52
2023-12-23T16:38:43.141Z,5.53
2023-12-23T16:41:13.611Z,5.51
2023-12-23T16:43:41.063Z,5.55
2023-12-23T16:46:09.277Z,5.47
2023-12-23T16:48:36.320Z,5.48
2023-12-23T16:51:03.299Z,5.48
2023-12-23T16:53:30.050Z,5.43
2023-12-23T16:55:56.947Z,5.43
2023-12-23T16:58:23.827Z,5.44
2023-12-23T17:00:50.532Z,5.43
2023-12-23T17:03:18.264Z,5.44
2023-12-23T17:05:45.657Z,5.43
2023-12-23T17:08:12.620Z,5.46
2023-12-23T17:10:39.306Z,5.45
2023-12-23T17:13:07.300Z,5.43
2023-12-23T17:15:33.997Z,5.43
2023-12-23T17:18:01.141Z,5.43
2023-12-23T17:20:28.130Z,5.41
2023-12-23T17:22:55.889Z,5.41
2023-12-23T17:25:22.914Z,5.52
2023-12-23T17:27:49.838Z,5.47
2023-12-23T17:30:16.784Z,5.44
2023-12-23T17:32:43.811Z,5.44
2023-12-23T17:35:10.991Z,5.45
2023-12-23T17:37:37.838Z,5.43
2023-12-23T17:40:05.112Z,5.40
2023-12-23T17:42:31.941Z,5.48
2023-12-23T17:44:59.727Z,5.63
2023-12-23T17:47:45.153Z,5.80
2023-12-23T17:50:14.250Z,5.96
2023-12-23T17:52:40.969Z,6.14
2023-12-23T17:55:26.057Z,6.30
2023-12-23T17:57:52.853Z,6.46
2023-12-23T18:00:21.618Z,6.60
2023-12-23T18:02:48.324Z,6.71
2023-12-23T18:05:17.952Z,6.83
2023-12-23T18:07:44.778Z,6.95
2023-12-23T18:10:11.630Z,7.04
2023-12-23T18:12:38.467Z,7.14
2023-12-23T18:15:05.525Z,7.23
2023-12-23T18:17:32.435Z,7.29
2023-12-23T18:19:59.223Z,7.40
2023-12-23T18:22:26.297Z,7.47
2023-12-23T18:24:52.933Z,7.52
2023-12-23T18:27:19.773Z,7.58
2023-12-23T18:29:46.461Z,7.65
2023-12-23T18:32:14.407Z,7.71
2023-12-23T18:34:41.443Z,7.75
2023-12-23T18:37:08.856Z,7.80
2023-12-23T18:39:36.220Z,7.87
2023-12-23T18:42:03.082Z,7.93
2023-12-23T18:44:29.940Z,7.96
2023-12-23T18:46:56.726Z,8.01
2023-12-23T18:49:23.732Z,8.05
2023-12-23T18:51:51.197Z,8.11
2023-12-23T18:54:18.255Z,8.13
2023-12-23T18:56:45.103Z,8.18
2023-12-23T18:59:12.703Z,8.20
2023-12-23T19:01:39.626Z,8.22
2023-12-23T19:04:08.237Z,8.26
2023-12-23T19:06:37.833Z,8.30
2023-12-23T19:09:04.791Z,8.33
2023-12-23T19:11:31.503Z,8.36
2023-12-23T19:13:58.557Z,8.39
2023-12-23T19:16:25.270Z,8.41
2023-12-23T19:18:52.075Z,8.44
2023-12-23T19:21:19.846Z,8.46
2023-12-23T19:23:46.630Z,8.48
2023-12-23T19:26:13.368Z,8.51
2023-12-23T19:28:40.092Z,8.52
2023-12-23T19:31:06.824Z,8.55
2023-12-23T19:33:34.870Z,8.57
2023-12-23T19:36:01.750Z,8.59
2023-12-23T19:38:28.607Z,8.62
2023-12-23T19:40:55.630Z,8.66
2023-12-23T19:43:24.968Z,8.69
2023-12-23T19:45:52.366Z,8.69
2023-12-23T19:48:19.219Z,8.72
2023-12-23T19:50:46.154Z,8.74
2023-12-23T19:53:12.999Z,8.76
2023-12-23T19:55:40.589Z,8.77
2023-12-23T19:58:07.359Z,8.79
2023-12-23T20:00:33.976Z,8.81
2023-12-23T20:03:19.072Z,8.82
2023-12-23T20:05:45.921Z,8.83
2023-12-23T20:08:12.824Z,8.84
2023-12-23T20:10:40.181Z,8.86
2023-12-23T20:13:06.858Z,8.88
2023-12-23T20:15:34.070Z,8.88
2023-12-23T20:18:02.068Z,8.89
2023-12-23T20:20:29.093Z,8.89
2023-12-23T20:22:56.079Z,8.92
2023-12-23T20:25:23.012Z,8.96
2023-12-23T20:27:49.703Z,8.94
2023-12-23T20:30:16.491Z,8.97
2023-12-23T20:32:43.240Z,8.99
2023-12-23T20:35:10.092Z,8.99
2023-12-23T20:37:36.774Z,9.00
2023-12-23T20:40:23.762Z,9.02
2023-12-23T20:42:51.083Z,9.02
2023-12-23T20:45:17.945Z,9.04
2023-12-23T20:47:44.800Z,9.05
2023-12-23T20:50:11.608Z,9.05
2023-12-23T20:52:38.427Z,9.05
2023-12-23T20:55:05.171Z,9.07
2023-12-23T20:57:32.239Z,9.08
2023-12-23T20:59:59.070Z,9.08
2023-12-23T21:02:25.900Z,9.08
2023-12-23T21:04:52.654Z,9.06
2023-12-23T21:07:39.714Z,9.07
2023-12-23T21:10:09.526Z,9.08
2023-12-23T21:12:36.527Z,9.08
2023-12-23T21:15:03.541Z,9.09
2023-12-23T21:17:30.607Z,9.10
2023-12-23T21:19:57.607Z,9.09
2023-12-23T21:22:42.567Z,9.11
2023-12-23T21:25:09.224Z,9.12
2023-12-23T21:27:35.919Z,9.12
2023-12-23T21:30:02.692Z,9.13
2023-12-23T21:32:29.425Z,9.13
2023-12-23T21:34:56.234Z,9.13
2023-12-23T21:37:22.934Z,9.12
2023-12-23T21:39:49.823Z,9.14
2023-12-23T21:42:16.554Z,9.14
2023-12-23T21:44:43.791Z,9.15
2023-12-23T21:47:10.538Z,9.16
2023-12-23T21:49:37.512Z,9.17
2023-12-23T21:52:04.516Z,9.17
2023-12-23T21:54:31.223Z,9.19
2023-12-23T21:56:57.855Z,9.19
2023-12-23T21:59:25.700Z,9.19
2023-12-23T22:01:52.617Z,9.21
2023-12-23T22:04:19.307Z,9.24
2023-12-23T22:06:46.874Z,9.23
2023-12-23T22:09:14.010Z,9.24
2023-12-23T22:11:40.986Z,9.24
2023-12-23T22:14:07.839Z,9.24
2023-12-23T22:16:34.647Z,9.24
2023-12-23T22:19:01.359Z,9.24
2023-12-23T22:21:28.143Z,9.25
2023-12-23T22:23:54.894Z,9.25
2023-12-23T22:26:40.339Z,9.26
2023-12-23T22:29:07.033Z,9.26
2023-12-23T22:31:33.715Z,9.27
2023-12-23T22:34:04.507Z,9.27
2023-12-23T22:36:31.875Z,9.16
2023-12-23T22:38:58.548Z,9.21
2023-12-23T22:41:25.337Z,9.25
2023-12-23T22:43:52.070Z,9.25
2023-12-23T22:46:19.185Z,9.26
2023-12-23T22:48:46.080Z,9.26
2023-12-23T22:51:12.854Z,9.25
2023-12-23T22:53:39.638Z,9.25
2023-12-23T22:56:07.441Z,9.26
2023-12-23T22:58:35.238Z,9.24
2023-12-23T23:01:02.128Z,9.24
2023-12-23T23:03:28.951Z,9.25
2023-12-23T23:05:56.000Z,9.26
2023-12-23T23:08:22.781Z,9.26
2023-12-23T23:10:49.631Z,9.26
2023-12-23T23:13:17.143Z,9.26
2023-12-23T23:15:43.962Z,9.26
2023-12-23T23:18:10.874Z,9.26
2023-12-23T23:20:37.736Z,9.25
2023-12-23T23:23:04.718Z,9.26
2023-12-23T23:25:31.514Z,9.25
2023-12-23T23:27:58.365Z,9.24
2023-12-23T23:30:25.416Z,9.21
2023-12-23T23:32:52.412Z,9.22
2023-12-23T23:35:19.452Z,9.21
2023-12-23T23:37:46.155Z,9.21
2023-12-23T23:40:13.203Z,9.20
2023-12-23T23:42:39.885Z,9.20
2023-12-23T23:45:07.823Z,9.21
2023-12-23T23:47:34.804Z,9.21
2023-12-23T23:50:04.936Z,9.21
2023-12-23T23:52:33.841Z,9.21
2023-12-23T23:55:00.606Z,9.21
2023-12-23T23:57:27.927Z,9.21
2023-12-23T23:59:54.732Z,9.21
